createdAt,value
2022-07-25T00:02:13.056Z,13.02
2022-07-25T00:04:42.177Z,12.95
2022-07-25T00:07:11.032Z,12.88
2022-07-25T00:09:39.413Z,12.60
2022-07-25T00:12:08.131Z,13.95
2022-07-25T00:14:39.461Z,14.68
2022-07-25T00:17:07.608Z,14.30
2022-07-25T00:19:35.976Z,13.75
2022-07-25T00:22:04.392Z,19.50
2022-07-25T00:24:32.605Z,71.57
2022-07-25T00:27:00.950Z,28.10
2022-07-25T00:29:29.267Z,18.38
2022-07-25T00:31:57.665Z,19.70
2022-07-25T00:34:26.124Z,18.15
2022-07-25T00:36:54.514Z,16.58
2022-07-25T00:39:22.686Z,16.70
2022-07-25T00:41:51.336Z,14.77
2022-07-25T00:44:29.564Z,18.70
2022-07-25T00:46:59.128Z,25.88
2022-07-25T00:49:28.255Z,37.80
2022-07-25T00:51:56.682Z,27.98
2022-07-25T00:54:25.404Z,15.15
2022-07-25T00:56:53.546Z,13.77
2022-07-25T00:59:21.796Z,13.93
2022-07-25T01:01:50.524Z,14.23
2022-07-25T01:04:18.856Z,14.75
2022-07-25T01:06:47.495Z,14.82
2022-07-25T01:09:16.374Z,14.88
2022-07-25T01:11:44.686Z,15.13
2022-07-25T01:14:13.047Z,27.75
2022-07-25T01:16:41.175Z,28.52
2022-07-25T01:19:10.170Z,17.88
2022-07-25T01:21:40.436Z,15.35
2022-07-25T01:24:09.296Z,14.63
2022-07-25T01:26:38.495Z,14.77
2022-07-25T01:29:07.158Z,15.60
2022-07-25T01:31:35.531Z,15.43
2022-07-25T01:34:04.280Z,14.77
2022-07-25T01:36:32.820Z,14.65
2022-07-25T01:39:01.037Z,13.98
2022-07-25T01:41:29.259Z,15.25
2022-07-25T01:43:57.567Z,15.82
2022-07-25T01:46:25.774Z,17.35
2022-07-25T01:48:54.141Z,15.30
2022-07-25T01:51:22.524Z,14.40
2022-07-25T01:53:54.728Z,14.80
2022-07-25T01:56:23.071Z,16.20
2022-07-25T01:58:52.085Z,14.95
2022-07-25T02:01:22.065Z,13.85
2022-07-25T02:03:51.469Z,15.95
2022-07-25T02:06:19.721Z,15.30
2022-07-25T02:08:48.001Z,14.40
2022-07-25T02:11:16.399Z,16.23
2022-07-25T02:13:44.511Z,16.45
2022-07-25T02:16:13.118Z,16.13
2022-07-25T02:18:42.478Z,17.65
2022-07-25T02:21:14.208Z,16.75
2022-07-25T02:26:12.221Z,14.73
2022-07-25T02:28:41.293Z,14.27
2022-07-25T02:31:10.298Z,14.70
2022-07-25T02:33:39.149Z,14.65
2022-07-25T02:36:07.937Z,15.73
2022-07-25T02:38:36.292Z,15.48
2022-07-25T02:41:05.298Z,15.82
2022-07-25T02:43:33.407Z,17.40
2022-07-25T02:48:04.386Z,18.95
2022-07-25T02:50:32.655Z,19.30
2022-07-25T02:53:00.771Z,17.50
2022-07-25T02:55:29.172Z,18.88
2022-07-25T02:57:57.442Z,20.70
2022-07-25T03:00:25.900Z,23.48
2022-07-25T03:02:54.251Z,25.88
2022-07-25T03:05:22.433Z,27.55
2022-07-25T03:07:50.940Z,29.55
2022-07-25T03:10:19.074Z,30.33
2022-07-25T03:12:47.560Z,24.05
2022-07-25T03:15:16.171Z,23.20
2022-07-25T03:17:44.547Z,21.92
2022-07-25T03:20:12.999Z,19.92
2022-07-25T03:22:41.331Z,18.00
2022-07-25T03:25:15.747Z,17.58
2022-07-25T03:27:50.529Z,19.08
2022-07-25T03:30:18.825Z,16.48
2022-07-25T03:32:47.153Z,18.40
2022-07-25T03:35:16.049Z,17.50
2022-07-25T03:37:44.362Z,17.33
2022-07-25T03:40:13.203Z,17.50
2022-07-25T03:42:42.137Z,16.15
2022-07-25T03:45:10.771Z,16.52
2022-07-25T03:47:39.126Z,17.05
2022-07-25T03:50:07.775Z,16.65
2022-07-25T03:52:35.981Z,18.02
2022-07-25T03:55:04.676Z,17.42
2022-07-25T03:57:32.884Z,17.23
2022-07-25T04:00:01.215Z,17.17
2022-07-25T04:02:29.512Z,17.52
2022-07-25T04:04:59.189Z,16.52
2022-07-25T04:07:27.864Z,17.42
2022-07-25T04:09:56.033Z,18.10
2022-07-25T04:12:24.514Z,17.63
2022-07-25T04:14:52.769Z,18.35
2022-07-25T04:17:21.118Z,18.67
2022-07-25T04:19:49.678Z,19.33
2022-07-25T04:22:17.982Z,18.17
2022-07-25T04:24:46.127Z,16.95
2022-07-25T04:27:14.387Z,17.40
2022-07-25T04:29:42.696Z,19.20
2022-07-25T04:32:11.087Z,17.90
2022-07-25T04:34:39.426Z,19.52
2022-07-25T04:37:07.696Z,16.80
2022-07-25T04:39:35.947Z,17.63
2022-07-25T04:42:04.349Z,17.60
2022-07-25T04:44:32.714Z,18.20
2022-07-25T04:47:00.941Z,17.88
2022-07-25T04:49:29.656Z,18.33
2022-07-25T04:51:57.772Z,17.42
2022-07-25T04:54:25.979Z,16.65
2022-07-25T04:56:54.319Z,16.23
2022-07-25T04:59:22.474Z,17.35
2022-07-25T05:01:50.841Z,17.02
2022-07-25T05:04:19.389Z,17.00
2022-07-25T05:06:47.476Z,18.00
2022-07-25T05:09:15.704Z,15.90
2022-07-25T05:11:47.972Z,17.05
2022-07-25T05:14:18.110Z,15.80
2022-07-25T05:16:49.134Z,17.33
2022-07-25T05:19:17.492Z,17.15
2022-07-25T05:21:45.695Z,17.95
2022-07-25T05:24:14.084Z,18.17
2022-07-25T05:26:42.426Z,18.35
2022-07-25T05:29:10.531Z,18.17
2022-07-25T05:31:39.036Z,18.77
2022-07-25T05:34:07.692Z,18.63
2022-07-25T05:36:36.171Z,18.83
2022-07-25T05:39:05.272Z,18.70
2022-07-25T05:41:33.479Z,20.15
2022-07-25T05:44:01.805Z,19.73
2022-07-25T05:46:30.113Z,21.52
2022-07-25T05:48:58.561Z,21.40
2022-07-25T05:51:27.687Z,22.98
2022-07-25T05:53:55.934Z,23.25
2022-07-25T05:56:24.250Z,26.52
2022-07-25T05:58:52.361Z,26.98
2022-07-25T06:01:20.587Z,27.95
2022-07-25T06:03:49.009Z,29.08
2022-07-25T06:06:17.233Z,27.55
2022-07-25T06:08:45.421Z,28.30
2022-07-25T06:11:13.791Z,29.20
2022-07-25T06:13:42.276Z,28.40
2022-07-25T06:16:10.586Z,27.92
2022-07-25T06:18:38.718Z,25.35
2022-07-25T06:21:07.228Z,28.38
2022-07-25T06:23:35.370Z,28.80
2022-07-25T06:26:03.668Z,28.88
2022-07-25T06:28:31.999Z,28.20
2022-07-25T06:31:00.795Z,28.35
2022-07-25T06:33:29.019Z,29.42
2022-07-25T06:35:57.315Z,25.98
2022-07-25T06:38:25.410Z,25.98
2022-07-25T06:40:53.717Z,26.55
2022-07-25T06:43:22.010Z,28.17
2022-07-25T06:45:51.674Z,26.55
2022-07-25T06:48:23.112Z,26.23
2022-07-25T06:50:52.172Z,24.38
2022-07-25T06:53:22.035Z,24.88
2022-07-25T06:55:50.250Z,24.17
2022-07-25T06:58:18.551Z,24.17
2022-07-25T07:00:51.322Z,26.48
2022-07-25T07:03:19.706Z,24.67
2022-07-25T07:05:48.006Z,25.65
2022-07-25T07:08:16.119Z,24.48
2022-07-25T07:10:44.646Z,25.35
2022-07-25T07:13:15.116Z,27.15
2022-07-25T07:15:48.243Z,26.10
2022-07-25T07:18:17.264Z,26.55
2022-07-25T07:20:45.737Z,23.50
2022-07-25T07:23:16.598Z,24.08
2022-07-25T07:25:46.771Z,23.67
2022-07-25T07:28:16.115Z,23.63
2022-07-25T07:31:15.570Z,23.77
2022-07-25T07:33:33.187Z,23.85
2022-07-25T07:36:02.708Z,24.80
2022-07-25T07:38:30.985Z,22.85
2022-07-25T07:40:59.223Z,23.00
2022-07-25T07:43:29.890Z,24.38
2022-07-25T07:45:59.623Z,22.05
2022-07-25T07:48:32.192Z,21.50
2022-07-25T07:51:02.707Z,22.83
2022-07-25T07:53:31.544Z,23.98
2022-07-25T07:55:59.788Z,24.50
2022-07-25T07:58:28.204Z,23.45
2022-07-25T08:00:56.441Z,22.17
2022-07-25T08:03:24.735Z,23.52
2022-07-25T08:05:53.179Z,20.85
2022-07-25T08:08:21.508Z,22.67
2022-07-25T08:10:54.493Z,23.38
2022-07-25T08:13:30.718Z,22.05
2022-07-25T08:16:00.957Z,21.95
2022-07-25T08:18:30.299Z,22.45
2022-07-25T08:20:59.014Z,20.77
2022-07-25T08:23:27.279Z,22.85
2022-07-25T08:25:55.856Z,22.10
2022-07-25T08:28:24.031Z,18.23
2022-07-25T08:30:52.485Z,16.67
2022-07-25T08:33:21.140Z,17.10
2022-07-25T08:35:51.211Z,17.83
2022-07-25T08:38:20.223Z,17.98
2022-07-25T08:40:49.018Z,16.80
2022-07-25T08:43:18.545Z,17.75
2022-07-25T08:45:49.162Z,16.50
2022-07-25T08:48:23.146Z,15.98
2022-07-25T08:50:52.965Z,17.50
2022-07-25T08:53:37.399Z,18.25
2022-07-25T08:56:13.751Z,18.45
2022-07-25T08:58:44.574Z,17.85
2022-07-25T09:01:14.713Z,18.15
2022-07-25T09:03:44.356Z,19.88
2022-07-25T09:06:22.960Z,18.38
2022-07-25T09:08:58.642Z,18.67
2022-07-25T09:11:32.217Z,20.90
2022-07-25T09:14:10.169Z,21.98
2022-07-25T09:16:41.304Z,19.55
2022-07-25T09:19:11.364Z,20.58
2022-07-25T09:21:40.645Z,19.40
2022-07-25T09:24:11.310Z,20.67
2022-07-25T09:26:51.979Z,19.08
2022-07-25T09:29:34.633Z,19.98
2022-07-25T09:32:14.529Z,19.75
2022-07-25T09:34:45.790Z,18.50
2022-07-25T09:37:17.353Z,19.50
2022-07-25T09:39:50.091Z,22.02
2022-07-25T09:42:22.902Z,23.98
2022-07-25T09:45:08.062Z,25.15
2022-07-25T09:47:38.876Z,22.48
2022-07-25T09:50:08.345Z,23.10
2022-07-25T09:52:37.649Z,20.35
2022-07-25T09:55:06.545Z,17.60
2022-07-25T09:57:34.854Z,19.27
2022-07-25T10:00:03.561Z,18.33
2022-07-25T10:03:09.823Z,16.83
2022-07-25T10:06:02.854Z,19.80
2022-07-25T10:08:39.811Z,16.13
2022-07-25T10:11:26.269Z,15.15
2022-07-25T10:13:55.604Z,15.30
2022-07-25T10:16:28.150Z,14.30
2022-07-25T10:18:58.163Z,12.50
2022-07-25T10:21:28.470Z,12.43
2022-07-25T10:24:08.901Z,11.63
2022-07-25T10:26:39.693Z,13.65
2022-07-25T10:29:12.515Z,13.23
2022-07-25T10:31:50.376Z,11.73
2022-07-25T10:34:30.549Z,11.25
2022-07-25T10:37:08.974Z,10.65
2022-07-25T10:39:41.938Z,12.30
2022-07-25T10:42:14.923Z,13.70
2022-07-25T10:44:56.387Z,11.85
2022-07-25T10:47:27.890Z,10.93
2022-07-25T10:50:16.943Z,12.02
2022-07-25T10:53:01.705Z,12.23
2022-07-25T10:55:30.341Z,12.98
2022-07-25T10:58:17.096Z,11.93
2022-07-25T11:00:46.102Z,11.52
2022-07-25T11:03:18.089Z,12.48
2022-07-25T11:05:49.595Z,12.63
2022-07-25T11:08:22.391Z,12.38
2022-07-25T11:10:54.032Z,12.30
2022-07-25T11:13:22.472Z,13.95
2022-07-25T11:15:51.228Z,11.73
2022-07-25T11:18:19.537Z,11.88
2022-07-25T11:20:48.074Z,12.75
2022-07-25T11:23:22.881Z,10.95
2022-07-25T11:25:51.245Z,11.48
2022-07-25T11:28:19.412Z,11.70
2022-07-25T11:30:48.927Z,11.20
2022-07-25T11:33:17.782Z,11.38
2022-07-25T11:35:46.641Z,10.85
2022-07-25T11:38:15.723Z,12.23
2022-07-25T11:40:46.509Z,12.88
2022-07-25T11:43:24.778Z,10.48
2022-07-25T11:46:07.337Z,12.25
2022-07-25T11:48:40.137Z,10.80
2022-07-25T11:51:19.415Z,10.27
2022-07-25T11:53:50.940Z,10.85
2022-07-25T11:59:12.391Z,10.13
2022-07-25T12:01:43.445Z,15.77
2022-07-25T12:04:21.254Z,12.80
2022-07-25T12:06:50.530Z,10.75
2022-07-25T12:09:21.096Z,14.13
2022-07-25T12:11:50.503Z,11.43
2022-07-25T12:14:18.947Z,11.13
2022-07-25T12:16:47.335Z,11.35
2022-07-25T12:19:23.637Z,11.70
2022-07-25T12:21:51.989Z,11.57
2022-07-25T12:24:20.250Z,11.05
2022-07-25T12:26:48.463Z,11.88
2022-07-25T12:29:16.969Z,10.50
2022-07-25T12:31:45.079Z,11.38
2022-07-25T12:34:13.321Z,10.65
2022-07-25T12:36:41.803Z,11.75
2022-07-25T12:39:10.519Z,11.25
2022-07-25T12:41:38.822Z,16.00
2022-07-25T12:44:07.172Z,14.38
2022-07-25T12:46:35.553Z,11.40
2022-07-25T12:49:04.164Z,11.90
2022-07-25T12:51:32.561Z,11.90
2022-07-25T12:54:00.908Z,10.00
2022-07-25T12:56:29.173Z,10.68
2022-07-25T12:58:57.500Z,9.93
2022-07-25T13:01:25.947Z,9.45
2022-07-25T13:03:54.223Z,11.48
2022-07-25T13:06:22.515Z,9.93
2022-07-25T13:08:50.777Z,10.50
2022-07-25T13:11:19.189Z,9.73
2022-07-25T13:13:47.488Z,11.05
2022-07-25T13:16:15.869Z,9.60
2022-07-25T13:18:44.143Z,10.15
2022-07-25T13:21:12.643Z,10.63
2022-07-25T13:23:41.489Z,9.98
2022-07-25T13:26:09.822Z,13.57
2022-07-25T13:28:38.087Z,12.48
2022-07-25T13:31:07.007Z,10.00
2022-07-25T13:33:35.556Z,9.75
2022-07-25T13:36:03.959Z,11.20
2022-07-25T13:38:32.318Z,11.65
2022-07-25T13:41:00.611Z,12.15
2022-07-25T13:43:28.913Z,9.98
2022-07-25T13:45:57.288Z,13.93
2022-07-25T13:48:30.381Z,11.60
2022-07-25T13:51:00.128Z,22.02
2022-07-25T13:53:30.398Z,18.75
2022-07-25T13:56:00.074Z,12.40
2022-07-25T13:58:28.531Z,17.50
2022-07-25T14:00:56.834Z,13.90
2022-07-25T14:03:25.329Z,13.13
2022-07-25T14:05:53.667Z,13.15
2022-07-25T14:08:21.944Z,12.70
2022-07-25T14:10:50.194Z,14.70
2022-07-25T14:13:18.754Z,12.13
2022-07-25T14:15:46.960Z,15.50
2022-07-25T14:18:16.029Z,13.77
2022-07-25T14:20:44.643Z,11.82
2022-07-25T14:23:13.108Z,15.93
2022-07-25T14:25:41.289Z,15.75
2022-07-25T14:28:10.027Z,11.85
2022-07-25T14:30:38.385Z,10.32
2022-07-25T14:33:06.541Z,9.25
2022-07-25T14:35:35.765Z,9.88
2022-07-25T14:38:04.754Z,9.23
2022-07-25T14:40:33.362Z,9.07
2022-07-25T14:43:01.625Z,9.38
2022-07-25T14:45:30.252Z,9.20
2022-07-25T14:47:58.640Z,10.07
2022-07-25T14:50:27.065Z,9.90
2022-07-25T14:52:55.449Z,9.68
2022-07-25T14:55:23.786Z,11.20
2022-07-25T14:57:52.139Z,10.35
2022-07-25T15:00:20.592Z,9.23
2022-07-25T15:02:49.803Z,11.18
2022-07-25T15:05:18.048Z,10.77
2022-07-25T15:07:46.486Z,8.93
2022-07-25T15:10:14.818Z,9.68
2022-07-25T15:12:43.097Z,9.23
2022-07-25T15:15:11.644Z,8.82
2022-07-25T15:17:40.150Z,9.75
2022-07-25T15:20:09.257Z,9.00
2022-07-25T15:22:37.816Z,9.38
2022-07-25T15:25:37.207Z,8.15
2022-07-25T15:27:54.738Z,10.52
2022-07-25T15:30:28.842Z,8.23
2022-07-25T15:32:57.818Z,8.20
2022-07-25T15:35:26.213Z,9.32
2022-07-25T15:37:54.493Z,9.63
2022-07-25T15:40:23.035Z,9.02
2022-07-25T15:42:51.219Z,8.90
2022-07-25T15:45:34.680Z,9.40
2022-07-25T15:48:03.176Z,8.80
2022-07-25T15:50:31.343Z,8.77
2022-07-25T15:52:59.742Z,8.70
2022-07-25T15:55:27.909Z,10.00
2022-07-25T15:57:56.982Z,8.88
2022-07-25T16:00:29.427Z,8.30
2022-07-25T16:02:58.583Z,8.30
2022-07-25T16:05:27.374Z,9.27
2022-07-25T16:07:55.781Z,8.65
2022-07-25T16:10:24.285Z,9.80
2022-07-25T16:12:52.486Z,8.38
2022-07-25T16:15:20.745Z,8.20
2022-07-25T16:17:50.468Z,8.38
2022-07-25T16:20:18.847Z,7.82
2022-07-25T16:22:47.389Z,8.02
2022-07-25T16:25:16.004Z,9.40
2022-07-25T16:27:44.393Z,8.57
2022-07-25T16:30:14.058Z,8.13
2022-07-25T16:32:44.680Z,8.07
2022-07-25T16:35:12.974Z,8.00
2022-07-25T16:37:41.698Z,9.93
2022-07-25T16:40:10.783Z,8.55
2022-07-25T16:42:39.449Z,11.25
2022-07-25T16:45:08.273Z,8.07
2022-07-25T16:47:36.756Z,9.63
2022-07-25T16:50:05.517Z,8.88
2022-07-25T16:52:33.815Z,8.75
2022-07-25T16:55:02.100Z,9.05
2022-07-25T16:57:31.401Z,7.35
2022-07-25T16:59:59.745Z,7.95
2022-07-25T17:02:29.989Z,7.55
2022-07-25T17:04:59.108Z,8.15
2022-07-25T17:07:27.816Z,8.20
2022-07-25T17:09:56.085Z,8.48
2022-07-25T17:12:24.585Z,7.72
2022-07-25T17:14:53.113Z,8.50
2022-07-25T17:17:21.527Z,8.40
2022-07-25T17:19:49.862Z,6.85
2022-07-25T17:22:18.059Z,6.88
2022-07-25T17:24:46.419Z,6.75
2022-07-25T17:27:14.688Z,7.35
2022-07-25T17:29:42.963Z,7.78
2022-07-25T17:32:11.338Z,8.85
2022-07-25T17:34:39.832Z,8.68
2022-07-25T17:37:08.787Z,9.63
2022-07-25T17:39:37.941Z,9.40
2022-07-25T17:42:06.317Z,7.72
2022-07-25T17:44:38.515Z,7.55
2022-07-25T17:47:10.136Z,7.20
2022-07-25T17:49:42.083Z,11.00
2022-07-25T17:52:15.814Z,7.60
2022-07-25T17:54:49.575Z,10.60
2022-07-25T17:57:21.260Z,10.85
2022-07-25T17:59:52.411Z,9.90
2022-07-25T18:02:20.922Z,11.20
2022-07-25T18:04:49.269Z,9.27
2022-07-25T18:07:17.954Z,9.60
2022-07-25T18:09:46.504Z,7.47
2022-07-25T18:12:14.799Z,7.07
2022-07-25T18:14:43.258Z,8.60
2022-07-25T18:17:11.846Z,8.93
2022-07-25T18:19:40.137Z,8.93
2022-07-25T18:22:08.676Z,12.50
2022-07-25T18:24:37.087Z,10.30
2022-07-25T18:27:05.737Z,11.80
2022-07-25T18:29:34.277Z,15.27
2022-07-25T18:32:03.430Z,28.27
2022-07-25T18:34:32.066Z,23.38
2022-07-25T18:37:00.625Z,18.85
2022-07-25T18:39:29.348Z,15.20
2022-07-25T18:41:57.629Z,21.83
2022-07-25T18:44:25.988Z,17.95
2022-07-25T18:46:54.293Z,16.52
2022-07-25T18:49:22.778Z,27.33
2022-07-25T18:51:51.245Z,25.42
2022-07-25T18:54:19.466Z,21.92
2022-07-25T18:56:47.795Z,21.05
2022-07-25T18:59:16.620Z,24.23
2022-07-25T19:01:45.216Z,24.08
2022-07-25T19:04:13.718Z,27.48
2022-07-25T19:06:41.990Z,25.15
2022-07-25T19:09:10.340Z,27.30
2022-07-25T19:11:42.161Z,24.98
2022-07-25T19:16:39.342Z,18.23
2022-07-25T19:19:07.877Z,21.45
2022-07-25T19:21:36.328Z,21.48
2022-07-25T19:24:05.403Z,20.42
2022-07-25T19:26:33.918Z,23.40
2022-07-25T19:29:02.384Z,30.88
2022-07-25T19:31:30.843Z,42.35
2022-07-25T19:33:59.184Z,39.63
2022-07-25T19:36:27.452Z,51.28
2022-07-25T19:38:55.693Z,45.63
2022-07-25T19:41:24.106Z,49.20
2022-07-25T19:43:53.434Z,40.88
2022-07-25T19:46:22.253Z,44.70
2022-07-25T19:48:50.628Z,45.95
2022-07-25T19:51:19.089Z,42.92
2022-07-25T19:53:47.393Z,48.97
2022-07-25T19:56:15.666Z,46.63
2022-07-25T19:58:43.935Z,45.45
2022-07-25T20:01:13.503Z,55.20
2022-07-25T20:03:42.455Z,57.20
2022-07-25T20:06:10.959Z,65.18
2022-07-25T20:08:39.447Z,61.83
2022-07-25T20:11:08.973Z,67.70
2022-07-25T20:13:37.215Z,76.70
2022-07-25T20:16:07.245Z,90.50
2022-07-25T20:18:35.567Z,83.05
2022-07-25T20:21:03.905Z,91.82
2022-07-25T20:23:32.580Z,88.25
2022-07-25T20:26:00.902Z,86.90
2022-07-25T20:28:29.118Z,88.90
2022-07-25T20:30:58.027Z,89.07
2022-07-25T20:33:27.633Z,91.82
2022-07-25T20:35:56.976Z,85.30
2022-07-25T20:38:26.114Z,92.85
2022-07-25T20:40:56.316Z,89.25
2022-07-25T20:43:25.779Z,89.03
2022-07-25T20:45:56.107Z,83.95
2022-07-25T20:48:24.640Z,77.50
2022-07-25T20:50:52.823Z,73.88
2022-07-25T20:53:21.202Z,62.95
2022-07-25T20:55:49.498Z,51.15
2022-07-25T20:58:18.019Z,39.47
2022-07-25T21:00:47.289Z,38.55
2022-07-25T21:03:17.031Z,36.05
2022-07-25T21:05:45.157Z,35.78
2022-07-25T21:08:13.437Z,35.50
2022-07-25T21:10:41.853Z,32.53
2022-07-25T21:13:10.201Z,33.47
2022-07-25T21:15:38.781Z,34.42
2022-07-25T21:18:07.199Z,32.58
2022-07-25T21:20:37.516Z,34.15
2022-07-25T21:23:06.017Z,36.25
2022-07-25T21:25:34.362Z,36.50
2022-07-25T21:28:02.614Z,37.80
2022-07-25T21:30:30.895Z,38.15
2022-07-25T21:32:59.414Z,38.45
2022-07-25T21:35:27.761Z,39.42
2022-07-25T21:37:55.958Z,46.40
2022-07-25T21:40:24.400Z,49.38
2022-07-25T21:42:52.848Z,50.42
2022-07-25T21:45:21.272Z,53.72
2022-07-25T21:47:49.768Z,57.55
2022-07-25T21:50:24.193Z,59.00
2022-07-25T21:52:53.807Z,58.90
2022-07-25T21:55:23.038Z,58.95
2022-07-25T21:57:51.720Z,59.83
2022-07-25T22:00:20.833Z,58.65
2022-07-25T22:02:49.704Z,58.72
2022-07-25T22:05:19.636Z,60.42
2022-07-25T22:07:48.566Z,61.60
2022-07-25T22:10:21.624Z,64.43
2022-07-25T22:12:49.950Z,67.20
2022-07-25T22:15:18.215Z,70.75
2022-07-25T22:17:48.946Z,70.97
2022-07-25T22:20:19.336Z,79.65
2022-07-25T22:22:49.219Z,79.45
2022-07-25T22:25:18.261Z,87.85
2022-07-25T22:27:46.489Z,95.53
2022-07-25T22:30:19.179Z,98.95
2022-07-25T22:32:49.119Z,98.90
2022-07-25T22:35:18.245Z,105.80
2022-07-25T22:37:46.907Z,107.82
2022-07-25T22:40:15.155Z,108.65
2022-07-25T22:42:43.593Z,109.65
2022-07-25T22:45:12.014Z,110.05
2022-07-25T22:47:40.151Z,111.85
2022-07-25T22:50:09.404Z,107.40
2022-07-25T22:52:37.614Z,115.80
2022-07-25T22:55:06.367Z,113.43
2022-07-25T22:57:37.135Z,113.03
2022-07-25T23:00:08.388Z,117.10
2022-07-25T23:02:36.817Z,111.78
2022-07-25T23:05:06.584Z,113.63
2022-07-25T23:07:35.309Z,115.47
2022-07-25T23:10:04.776Z,114.53
2022-07-25T23:12:33.008Z,116.78
2022-07-25T23:15:01.501Z,112.38
2022-07-25T23:17:29.785Z,106.28
2022-07-25T23:19:58.406Z,99.68
2022-07-25T23:22:28.378Z,98.57
2022-07-25T23:24:56.932Z,93.45
2022-07-25T23:27:25.608Z,87.78
2022-07-25T23:29:54.140Z,83.40
2022-07-25T23:32:22.448Z,80.30
2022-07-25T23:34:50.670Z,74.50
2022-07-25T23:37:18.977Z,75.78
2022-07-25T23:39:47.226Z,76.10
2022-07-25T23:42:15.383Z,75.53
2022-07-25T23:44:43.855Z,74.95
2022-07-25T23:47:12.990Z,70.38
2022-07-25T23:49:41.579Z,70.15
2022-07-25T23:52:10.117Z,70.70
2022-07-25T23:54:38.572Z,70.53
2022-07-25T23:57:07.419Z,69.18
2022-07-25T23:59:36.298Z,69.57
